Time;durP1;ratioP1;P1;durP2;ratioP2;P2;SDS_P1;SDS_P2;PMS_P1;PMS_P2;Temp;Humidity;BMP_temperature;BMP_pressure;BME280_temperature;BME280_humidity;BME280_pressure;Samples;Min_cycle;Max_cycle;Signal;HPM_P1;HPM_P2
2022/03/13 00:00:00;;;;;;;14.77;9.73;;;;;;;;;;5048387;28;20441;-80
2022/03/13 00:02:27;;;;;;;11.80;9.50;;;;;;;;;;5048962;28;20916;-80
2022/03/13 00:04:56;;;;;;;11.03;7.73;;;;;;;;;;5048083;28;20440;-80
2022/03/13 00:07:28;;;;;;;9.80;7.77;;;;;;;;;;5048197;28;20451;-80
2022/03/13 00:09:55;;;;;;;9.73;7.10;;;;;;;;;;5048273;28;20468;-79
2022/03/13 00:12:28;;;;;;;8.93;6.70;;;;;;;;;;5048578;28;20432;-80
2022/03/13 00:14:56;;;;;;;9.10;8.17;;;;;;;;;;5047974;28;20435;-80
2022/03/13 00:17:27;;;;;;;9.43;8.03;;;;;;;;;;5048354;27;20516;-80
2022/03/13 00:19:55;;;;;;;11.53;8.13;;;;;;;;;;5048510;28;20429;-80
2022/03/13 00:22:24;;;;;;;11.47;8.10;;;;;;;;;;5048265;28;20529;-80
2022/03/13 00:24:51;;;;;;;6.70;6.00;;;;;;;;;;5047978;28;20445;-80
2022/03/13 00:27:18;;;;;;;5.97;5.37;;;;;;;;;;5047953;28;21050;-80
2022/03/13 00:29:46;;;;;;;10.03;6.77;;;;;;;;;;5048027;28;21007;-81
2022/03/13 00:32:13;;;;;;;8.70;5.93;;;;;;;;;;5048211;28;20448;-80
2022/03/13 00:34:40;;;;;;;7.13;5.23;;;;;;;;;;5049172;28;20444;-81
2022/03/13 00:37:07;;;;;;;6.70;5.40;;;;;;;;;;5049380;28;20813;-81
2022/03/13 00:39:36;;;;;;;6.77;5.50;;;;;;;;;;5048914;28;20497;-81
2022/03/13 00:42:04;;;;;;;5.97;5.37;;;;;;;;;;5049377;28;20520;-80
2022/03/13 00:44:31;;;;;;;6.10;5.13;;;;;;;;;;5048976;28;20970;-81
2022/03/13 00:46:59;;;;;;;6.90;5.50;;;;;;;;;;5048769;28;20448;-80
2022/03/13 00:49:26;;;;;;;6.23;5.07;;;;;;;;;;5048748;28;20575;-80
2022/03/13 00:51:54;;;;;;;4.80;4.33;;;;;;;;;;5049345;28;20527;-80
2022/03/13 00:54:21;;;;;;;7.03;5.73;;;;;;;;;;5048747;28;20513;-80
2022/03/13 00:56:49;;;;;;;4.97;4.40;;;;;;;;;;5049208;28;20535;-81
2022/03/13 00:59:17;;;;;;;5.73;4.63;;;;;;;;;;5048513;28;20531;-80
2022/03/13 01:01:44;;;;;;;4.07;3.37;;;;;;;;;;5048900;28;20475;-80
2022/03/13 01:04:11;;;;;;;4.00;3.67;;;;;;;;;;5048954;28;20440;-80
2022/03/13 01:06:40;;;;;;;3.97;3.67;;;;;;;;;;5048702;28;20969;-81
2022/03/13 01:09:07;;;;;;;3.93;3.53;;;;;;;;;;5048426;28;20480;-81
2022/03/13 01:11:35;;;;;;;6.33;5.47;;;;;;;;;;5049034;28;20447;-81
2022/03/13 01:14:04;;;;;;;5.10;4.70;;;;;;;;;;5048602;28;20441;-80
2022/03/13 01:16:36;;;;;;;5.80;5.20;;;;;;;;;;5048696;27;20545;-81
2022/03/13 01:19:03;;;;;;;7.10;5.83;;;;;;;;;;5049635;28;20504;-80
2022/03/13 01:21:34;;;;;;;10.90;5.13;;;;;;;;;;5052941;28;20527;-81
2022/03/13 01:24:20;;;;;;;6.53;5.20;;;;;;;;;;5052045;28;20457;-80
2022/03/13 01:26:52;;;;;;;10.70;5.40;;;;;;;;;;5052454;28;20499;-81
2022/03/13 01:29:22;;;;;;;6.53;4.93;;;;;;;;;;5051933;28;20499;-80
2022/03/13 01:31:50;;;;;;;5.83;5.23;;;;;;;;;;5052371;28;20448;-81
2022/03/13 01:34:42;;;;;;;8.13;5.97;;;;;;;;;;5051832;28;20445;-80
2022/03/13 01:37:15;;;;;;;6.70;4.83;;;;;;;;;;5049566;28;20479;-80
2022/03/13 01:39:43;;;;;;;10.27;6.50;;;;;;;;;;5051734;28;20428;-81
2022/03/13 01:42:10;;;;;;;8.03;5.67;;;;;;;;;;5052400;28;20543;-80
2022/03/13 01:44:39;;;;;;;7.93;5.37;;;;;;;;;;5051762;28;20440;-81
2022/03/13 01:47:07;;;;;;;7.20;4.60;;;;;;;;;;5051863;28;20441;-81
2022/03/13 01:49:34;;;;;;;5.27;4.77;;;;;;;;;;5051538;28;20479;-81
2022/03/13 01:52:02;;;;;;;7.30;4.30;;;;;;;;;;5051763;28;20450;-81
2022/03/13 01:54:31;;;;;;;5.67;4.83;;;;;;;;;;5051503;28;20444;-81
2022/03/13 01:57:00;;;;;;;4.17;3.77;;;;;;;;;;5051661;28;20443;-81
2022/03/13 01:59:28;;;;;;;5.67;4.33;;;;;;;;;;5051652;28;20479;-81
2022/03/13 02:01:57;;;;;;;6.03;5.07;;;;;;;;;;5051929;28;21009;-81
2022/03/13 02:04:26;;;;;;;5.63;4.80;;;;;;;;;;5051405;28;21096;-81
2022/03/13 02:06:55;;;;;;;6.60;5.23;;;;;;;;;;5051326;28;20448;-81
2022/03/13 02:09:23;;;;;;;5.73;4.10;;;;;;;;;;5051213;28;20490;-81
2022/03/13 02:11:51;;;;;;;5.57;4.73;;;;;;;;;;5051467;28;20974;-81
2022/03/13 02:14:21;;;;;;;5.77;4.80;;;;;;;;;;5051414;28;20448;-81
2022/03/13 02:16:48;;;;;;;5.87;4.67;;;;;;;;;;5051217;28;20511;-81
2022/03/13 02:19:18;;;;;;;5.27;4.60;;;;;;;;;;5051001;28;20512;-80
2022/03/13 02:21:48;;;;;;;5.03;3.90;;;;;;;;;;5051640;28;20448;-80
2022/03/13 02:24:17;;;;;;;5.50;4.83;;;;;;;;;;5051067;28;20441;-81
2022/03/13 02:26:55;;;;;;;4.80;4.27;;;;;;;;;;5050882;28;20451;-81
2022/03/13 02:29:22;;;;;;;4.23;3.77;;;;;;;;;;5050547;28;20464;-81
2022/03/13 02:31:50;;;;;;;5.47;4.90;;;;;;;;;;5050981;28;20839;-81
2022/03/13 02:34:18;;;;;;;4.50;4.10;;;;;;;;;;5049247;28;20982;-80
2022/03/13 02:37:01;;;;;;;5.23;4.07;;;;;;;;;;5050078;28;20468;-81
2022/03/13 02:39:35;;;;;;;4.97;4.03;;;;;;;;;;5050737;28;20467;-80
2022/03/13 02:42:07;;;;;;;5.10;4.43;;;;;;;;;;5051039;28;20436;-80
2022/03/13 02:44:35;;;;;;;6.70;4.27;;;;;;;;;;5050668;28;20425;-80
2022/03/13 02:47:05;;;;;;;4.53;3.40;;;;;;;;;;5050854;28;21035;-81
2022/03/13 02:49:33;;;;;;;5.73;4.30;;;;;;;;;;5050535;28;20480;-81
2022/03/13 02:52:03;;;;;;;5.57;4.83;;;;;;;;;;5050828;28;20945;-81
2022/03/13 02:54:32;;;;;;;4.33;3.93;;;;;;;;;;5050363;28;20490;-80
2022/03/13 02:56:59;;;;;;;4.87;3.93;;;;;;;;;;5051314;28;20877;-80
2022/03/13 02:59:26;;;;;;;4.87;4.37;;;;;;;;;;5050700;28;20452;-81
2022/03/13 03:01:54;;;;;;;4.37;3.80;;;;;;;;;;5050741;28;20933;-80
2022/03/13 03:04:24;;;;;;;4.40;4.00;;;;;;;;;;5050590;28;20451;-80
2022/03/13 03:07:00;;;;;;;5.73;4.67;;;;;;;;;;5050572;28;20445;-80
2022/03/13 03:09:30;;;;;;;4.23;3.77;;;;;;;;;;5050631;28;20789;-81
2022/03/13 03:12:00;;;;;;;5.10;4.10;;;;;;;;;;5051072;28;20456;-80
2022/03/13 03:14:29;;;;;;;6.40;3.70;;;;;;;;;;5050232;28;20441;-81
2022/03/13 03:16:56;;;;;;;4.77;3.90;;;;;;;;;;5050287;28;20482;-81
2022/03/13 03:19:24;;;;;;;4.67;3.30;;;;;;;;;;5050697;28;20440;-81
2022/03/13 03:21:52;;;;;;;6.57;4.80;;;;;;;;;;5050308;28;20820;-80
2022/03/13 03:24:21;;;;;;;4.87;4.27;;;;;;;;;;5049971;28;20441;-81
2022/03/13 03:26:49;;;;;;;4.90;4.33;;;;;;;;;;5050223;28;20542;-80
2022/03/13 03:29:18;;;;;;;4.17;3.50;;;;;;;;;;5050067;28;20477;-80
2022/03/13 03:31:46;;;;;;;4.00;3.60;;;;;;;;;;5049945;28;20452;-80
2022/03/13 03:34:15;;;;;;;3.80;3.50;;;;;;;;;;5050023;28;20991;-80
2022/03/13 03:36:44;;;;;;;3.60;3.30;;;;;;;;;;5050074;28;20447;-80
2022/03/13 03:39:12;;;;;;;3.73;3.40;;;;;;;;;;5049838;28;20535;-80
2022/03/13 03:41:42;;;;;;;4.40;4.00;;;;;;;;;;5048991;28;20967;-80
2022/03/13 03:44:10;;;;;;;3.70;3.40;;;;;;;;;;5050060;28;20900;-80
2022/03/13 03:46:39;;;;;;;5.63;4.10;;;;;;;;;;5049935;28;20440;-80
2022/03/13 03:49:07;;;;;;;5.03;4.53;;;;;;;;;;5049730;28;20444;-80
2022/03/13 03:51:34;;;;;;;4.90;4.40;;;;;;;;;;5049554;28;21091;-80
2022/03/13 03:54:01;;;;;;;6.27;4.57;;;;;;;;;;5049804;28;20436;-80
2022/03/13 03:56:28;;;;;;;5.00;3.87;;;;;;;;;;5049789;28;20448;-81
2022/03/13 03:58:56;;;;;;;6.97;4.30;;;;;;;;;;5049763;28;20470;-80
2022/03/13 04:01:23;;;;;;;4.23;3.83;;;;;;;;;;5049950;28;20440;-81
2022/03/13 04:03:52;;;;;;;3.50;3.23;;;;;;;;;;5049804;28;20463;-80
2022/03/13 04:06:20;;;;;;;3.90;3.60;;;;;;;;;;5049887;28;20518;-80
2022/03/13 04:08:47;;;;;;;4.60;4.07;;;;;;;;;;5049936;28;20445;-80
2022/03/13 04:11:15;;;;;;;5.37;3.50;;;;;;;;;;5049393;28;20487;-80
2022/03/13 04:13:42;;;;;;;6.13;3.63;;;;;;;;;;5049501;28;20444;-81
2022/03/13 04:16:10;;;;;;;4.57;3.57;;;;;;;;;;5049181;27;20445;-80
2022/03/13 04:18:38;;;;;;;4.77;4.17;;;;;;;;;;5049770;28;20445;-80
2022/03/13 04:21:07;;;;;;;5.13;3.83;;;;;;;;;;5049311;28;20933;-80
2022/03/13 04:23:35;;;;;;;3.70;3.40;;;;;;;;;;5049429;28;21021;-81
2022/03/13 04:26:03;;;;;;;4.47;3.63;;;;;;;;;;5049350;28;20444;-80
2022/03/13 04:28:31;;;;;;;5.27;4.03;;;;;;;;;;5049440;28;20509;-81
2022/03/13 04:31:00;;;;;;;4.17;3.77;;;;;;;;;;5049064;28;20502;-80
2022/03/13 04:33:28;;;;;;;5.40;3.70;;;;;;;;;;5049091;28;20448;-80
2022/03/13 04:36:00;;;;;;;4.83;4.17;;;;;;;;;;5049047;28;20834;-80
2022/03/13 04:38:29;;;;;;;3.60;3.30;;;;;;;;;;5049276;28;20477;-80
2022/03/13 04:40:57;;;;;;;5.00;4.50;;;;;;;;;;5049241;28;20824;-80
2022/03/13 04:43:25;;;;;;;5.47;4.27;;;;;;;;;;5049183;28;20543;-80
2022/03/13 04:45:52;;;;;;;4.60;3.87;;;;;;;;;;5049152;28;20436;-80
2022/03/13 04:48:20;;;;;;;5.67;4.70;;;;;;;;;;5049070;28;20432;-80
2022/03/13 04:50:47;;;;;;;9.43;6.10;;;;;;;;;;5049078;28;20878;-80
2022/03/13 04:53:15;;;;;;;9.30;6.60;;;;;;;;;;5048715;28;20444;-80
2022/03/13 04:55:44;;;;;;;5.30;4.80;;;;;;;;;;5048464;28;20448;-80
2022/03/13 04:58:11;;;;;;;8.00;5.33;;;;;;;;;;5049947;28;20449;-80
2022/03/13 05:00:39;;;;;;;6.70;5.30;;;;;;;;;;5048671;28;21015;-81
2022/03/13 05:03:07;;;;;;;6.10;5.50;;;;;;;;;;5048698;28;20441;-80
2022/03/13 05:05:36;;;;;;;7.10;5.20;;;;;;;;;;5048625;28;20454;-81
2022/03/13 05:08:04;;;;;;;7.37;5.40;;;;;;;;;;5049130;28;20432;-81
2022/03/13 05:10:36;;;;;;;7.87;6.40;;;;;;;;;;5048806;28;20484;-80
2022/03/13 05:13:12;;;;;;;6.10;5.47;;;;;;;;;;5048763;28;20447;-81
2022/03/13 05:15:39;;;;;;;7.53;5.93;;;;;;;;;;5048855;28;20429;-80
2022/03/13 05:18:07;;;;;;;6.83;6.10;;;;;;;;;;5048654;27;20468;-81
2022/03/13 05:20:34;;;;;;;5.70;5.17;;;;;;;;;;5048144;28;20433;-80
2022/03/13 05:23:01;;;;;;;6.53;5.53;;;;;;;;;;5048620;28;20535;-81
2022/03/13 05:25:30;;;;;;;6.57;4.77;;;;;;;;;;5048399;28;20451;-80
2022/03/13 05:27:57;;;;;;;8.67;5.57;;;;;;;;;;5048773;28;20452;-80
2022/03/13 05:30:26;;;;;;;7.63;5.50;;;;;;;;;;5048029;28;20476;-80
2022/03/13 05:32:53;;;;;;;4.97;4.47;;;;;;;;;;5048397;28;21013;-81
2022/03/13 05:35:20;;;;;;;7.97;5.87;;;;;;;;;;5048172;28;20451;-81
2022/03/13 05:37:48;;;;;;;5.97;5.00;;;;;;;;;;5048227;28;21017;-80
2022/03/13 05:40:17;;;;;;;5.43;4.13;;;;;;;;;;5048185;28;20513;-80
2022/03/13 05:42:46;;;;;;;5.17;4.37;;;;;;;;;;5048586;28;20436;-81
2022/03/13 05:45:15;;;;;;;3.97;3.20;;;;;;;;;;5048095;28;20448;-81
2022/03/13 05:47:48;;;;;;;5.33;4.83;;;;;;;;;;5048362;28;20520;-80
2022/03/13 05:50:16;;;;;;;4.47;3.90;;;;;;;;;;5047948;28;20438;-80
2022/03/13 05:52:45;;;;;;;4.10;3.60;;;;;;;;;;5048440;28;20455;-80
2022/03/13 05:55:12;;;;;;;3.80;3.50;;;;;;;;;;5047679;28;20479;-80
2022/03/13 05:57:39;;;;;;;5.13;4.60;;;;;;;;;;5048103;28;20436;-80
2022/03/13 06:00:09;;;;;;;6.50;5.10;;;;;;;;;;5048357;28;20897;-80
2022/03/13 06:02:40;;;;;;;5.43;4.87;;;;;;;;;;5048147;28;20508;-80
2022/03/13 06:05:11;;;;;;;5.67;4.37;;;;;;;;;;5048907;28;20429;-80
2022/03/13 06:07:38;;;;;;;6.73;5.73;;;;;;;;;;5052001;28;20943;-80
2022/03/13 06:10:08;;;;;;;7.53;5.83;;;;;;;;;;5051316;28;20452;-81
2022/03/13 06:12:35;;;;;;;4.20;3.80;;;;;;;;;;5051640;28;20543;-81
2022/03/13 06:15:04;;;;;;;14.87;8.70;;;;;;;;;;5050901;28;20451;-81
2022/03/13 06:17:31;;;;;;;8.50;6.20;;;;;;;;;;5051191;28;20492;-82
2022/03/13 06:19:58;;;;;;;9.07;6.97;;;;;;;;;;5050985;28;20956;-81
2022/03/13 06:22:27;;;;;;;8.87;6.33;;;;;;;;;;5051476;28;20523;-80
2022/03/13 06:24:54;;;;;;;11.37;6.80;;;;;;;;;;5051039;28;20839;-80
2022/03/13 06:27:22;;;;;;;5.67;5.07;;;;;;;;;;5051490;28;20517;-81
2022/03/13 06:29:49;;;;;;;7.57;6.13;;;;;;;;;;5051095;28;20433;-81
2022/03/13 06:32:18;;;;;;;8.33;6.63;;;;;;;;;;5050948;28;20479;-81
2022/03/13 06:34:45;;;;;;;12.63;8.30;;;;;;;;;;5050688;28;20445;-82
2022/03/13 06:37:13;;;;;;;16.03;10.03;;;;;;;;;;5051244;28;21020;-82
2022/03/13 06:39:42;;;;;;;13.77;7.90;;;;;;;;;;5051120;28;20825;-82
2022/03/13 06:42:09;;;;;;;11.10;7.50;;;;;;;;;;5050983;28;20501;-82
2022/03/13 06:44:36;;;;;;;5.83;4.13;;;;;;;;;;5050818;28;20250;-82
2022/03/13 06:47:04;;;;;;;6.40;4.70;;;;;;;;;;5050904;28;20222;-82
2022/03/13 06:49:31;;;;;;;5.43;4.90;;;;;;;;;;5051033;28;20224;-82
2022/03/13 06:51:58;;;;;;;4.77;3.53;;;;;;;;;;5050519;28;20224;-82
2022/03/13 06:54:26;;;;;;;6.30;5.67;;;;;;;;;;5050683;28;20297;-82
2022/03/13 06:56:55;;;;;;;6.27;4.83;;;;;;;;;;5050759;28;20204;-82
2022/03/13 06:59:22;;;;;;;5.60;5.07;;;;;;;;;;5050526;28;20293;-82
2022/03/13 07:01:49;;;;;;;5.07;4.40;;;;;;;;;;5050635;28;20194;-82
2022/03/13 07:04:16;;;;;;;5.30;4.77;;;;;;;;;;5050784;28;20614;-81
2022/03/13 07:06:44;;;;;;;6.00;4.33;;;;;;;;;;5050883;28;20288;-82
2022/03/13 07:09:11;;;;;;;6.93;5.67;;;;;;;;;;5050458;28;20205;-82
2022/03/13 07:11:42;;;;;;;4.43;4.03;;;;;;;;;;5050491;28;20233;-82
2022/03/13 07:14:11;;;;;;;5.37;4.17;;;;;;;;;;5050360;28;20303;-82
2022/03/13 07:16:38;;;;;;;4.67;3.97;;;;;;;;;;5050417;27;20238;-82
2022/03/13 07:19:06;;;;;;;4.77;3.97;;;;;;;;;;5050194;28;20190;-83
2022/03/13 07:21:33;;;;;;;6.40;5.40;;;;;;;;;;5050428;28;20662;-83
2022/03/13 07:24:00;;;;;;;8.37;7.40;;;;;;;;;;5050259;28;20202;-83
2022/03/13 07:26:28;;;;;;;5.23;4.77;;;;;;;;;;5050954;28;20688;-88
2022/03/13 07:28:55;;;;;;;4.30;3.87;;;;;;;;;;5050143;28;20200;-84
2022/03/13 07:31:23;;;;;;;3.80;3.50;;;;;;;;;;5050211;28;20229;-84
2022/03/13 07:33:51;;;;;;;4.27;3.50;;;;;;;;;;5050686;28;20201;-84
2022/03/13 07:36:18;;;;;;;4.13;3.00;;;;;;;;;;5050365;28;20205;-83
2022/03/13 07:38:45;;;;;;;3.87;3.03;;;;;;;;;;5050146;28;20257;-83
2022/03/13 07:41:12;;;;;;;4.07;3.67;;;;;;;;;;5049938;28;20194;-84
2022/03/13 07:43:40;;;;;;;3.93;3.30;;;;;;;;;;5050356;28;20700;-85
2022/03/13 07:46:07;;;;;;;5.83;5.23;;;;;;;;;;5049914;28;20244;-85
2022/03/13 07:48:35;;;;;;;4.23;3.53;;;;;;;;;;5050188;28;20597;-85
2022/03/13 07:51:04;;;;;;;37.70;24.87;;;;;;;;;;5049879;28;20225;-86
2022/03/13 07:53:31;;;;;;;6.57;5.33;;;;;;;;;;5050638;28;20288;-85
2022/03/13 07:55:58;;;;;;;8.83;4.37;;;;;;;;;;5050112;28;20661;-87
2022/03/13 07:58:26;;;;;;;4.77;3.77;;;;;;;;;;5050210;28;20198;-86
2022/03/13 08:00:53;;;;;;;269.27;166.23;;;;;;;;;;5050060;28;20682;-87
2022/03/13 08:03:30;;;;;;;33.57;21.20;;;;;;;;;;5050110;28;20198;-86
2022/03/13 08:05:59;;;;;;;11.20;7.80;;;;;;;;;;5049928;28;20198;-87
2022/03/13 08:08:26;;;;;;;13.70;9.43;;;;;;;;;;5050326;28;20281;-87
2022/03/13 08:10:53;;;;;;;5.67;4.40;;;;;;;;;;5049842;28;20274;-86
2022/03/13 08:13:20;;;;;;;5.10;3.80;;;;;;;;;;5049857;28;20237;-86
2022/03/13 08:15:47;;;;;;;4.30;3.93;;;;;;;;;;5049842;28;20228;-87
2022/03/13 08:18:15;;;;;;;4.73;3.40;;;;;;;;;;5049654;27;20273;-86
2022/03/13 08:20:42;;;;;;;62.67;35.13;;;;;;;;;;5049913;28;20208;-87
2022/03/13 08:23:11;;;;;;;7.07;5.47;;;;;;;;;;5050265;28;20202;-88
2022/03/13 08:25:39;;;;;;;5.00;3.83;;;;;;;;;;5049544;28;20197;-87
2022/03/13 08:28:07;;;;;;;4.37;3.50;;;;;;;;;;5049222;28;20277;-87
2022/03/13 08:30:34;;;;;;;5.73;3.97;;;;;;;;;;5049717;28;20202;-87
2022/03/13 08:33:02;;;;;;;5.37;3.73;;;;;;;;;;5049832;28;20792;-88
2022/03/13 08:35:32;;;;;;;5.20;3.97;;;;;;;;;;5050186;28;20666;-88
2022/03/13 08:37:59;;;;;;;4.27;3.83;;;;;;;;;;5050851;28;20198;-87
2022/03/13 08:40:29;;;;;;;7.50;5.50;;;;;;;;;;5049908;28;20206;-88
2022/03/13 08:42:57;;;;;;;5.63;5.13;;;;;;;;;;5049361;28;20178;-87
2022/03/13 08:45:24;;;;;;;4.40;3.80;;;;;;;;;;5049910;28;20229;-88
2022/03/13 08:47:51;;;;;;;5.40;3.60;;;;;;;;;;5049532;28;20233;-88
2022/03/13 08:50:20;;;;;;;4.83;4.30;;;;;;;;;;5049998;28;20199;-88
2022/03/13 08:52:47;;;;;;;4.73;4.27;;;;;;;;;;5049898;28;20234;-88
2022/03/13 08:55:15;;;;;;;3.90;3.37;;;;;;;;;;5049802;28;20198;-89
2022/03/13 08:57:45;;;;;;;3.77;3.43;;;;;;;;;;5049677;28;20205;-89
2022/03/13 09:00:14;;;;;;;4.43;3.63;;;;;;;;;;5049901;28;20202;-88
2022/03/13 09:02:42;;;;;;;5.07;3.77;;;;;;;;;;5049619;28;20194;-88
2022/03/13 09:05:09;;;;;;;14.90;9.30;;;;;;;;;;5049846;28;20201;-89
2022/03/13 09:07:36;;;;;;;6.53;4.43;;;;;;;;;;5049626;28;20213;-88
2022/03/13 09:10:06;;;;;;;4.60;4.17;;;;;;;;;;5049988;28;20206;-88
2022/03/13 09:12:33;;;;;;;4.03;3.63;;;;;;;;;;5046044;28;20230;-88
2022/03/13 09:15:02;;;;;;;4.30;3.90;;;;;;;;;;5029040;28;20202;-86
2022/03/13 09:17:29;;;;;;;5.70;3.70;;;;;;;;;;5028788;28;20595;-87
2022/03/13 09:19:56;;;;;;;5.03;3.67;;;;;;;;;;5029569;28;20253;-88
2022/03/13 09:22:30;;;;;;;4.73;4.23;;;;;;;;;;5028964;28;20609;-86
2022/03/13 09:24:58;;;;;;;4.60;4.10;;;;;;;;;;5028903;28;20187;-87
2022/03/13 09:27:26;;;;;;;5.50;4.93;;;;;;;;;;5028791;28;20195;-87
2022/03/13 09:29:54;;;;;;;20.57;13.60;;;;;;;;;;5029479;28;20224;-88
2022/03/13 09:32:23;;;;;;;7.33;5.47;;;;;;;;;;5040484;28;20226;-88
2022/03/13 09:34:50;;;;;;;9.07;8.07;;;;;;;;;;5048923;28;20200;-87
2022/03/13 09:37:17;;;;;;;5.90;4.87;;;;;;;;;;5048836;28;20208;-87
2022/03/13 09:39:45;;;;;;;5.30;3.73;;;;;;;;;;5049528;28;20194;-87
2022/03/13 09:42:12;;;;;;;4.43;4.00;;;;;;;;;;5052435;28;20194;-88
2022/03/13 09:44:39;;;;;;;5.37;3.80;;;;;;;;;;5052300;28;20212;-88
2022/03/13 09:47:07;;;;;;;7.87;6.70;;;;;;;;;;5052550;28;20193;-88
2022/03/13 09:49:36;;;;;;;5.57;5.07;;;;;;;;;;5052674;28;20216;-88
2022/03/13 09:52:03;;;;;;;4.70;3.50;;;;;;;;;;5052267;28;20218;-88
2022/03/13 09:54:30;;;;;;;4.20;3.87;;;;;;;;;;5051822;28;20674;-88
2022/03/13 09:56:58;;;;;;;4.90;3.23;;;;;;;;;;5052068;28;20205;-88
2022/03/13 09:59:25;;;;;;;5.77;4.03;;;;;;;;;;5052731;28;20555;-86
2022/03/13 10:01:52;;;;;;;4.40;3.40;;;;;;;;;;5052617;28;20198;-88
2022/03/13 10:04:19;;;;;;;5.07;4.37;;;;;;;;;;5052517;28;20190;-88
2022/03/13 10:07:08;;;;;;;8.37;5.20;;;;;;;;;;5052479;28;20220;-88
2022/03/13 10:09:36;;;;;;;5.97;3.90;;;;;;;;;;5052125;28;20221;-88
2022/03/13 10:12:09;;;;;;;4.70;3.80;;;;;;;;;;5052379;28;20577;-88
2022/03/13 10:14:38;;;;;;;3.60;3.20;;;;;;;;;;5052170;28;20183;-88
2022/03/13 10:17:07;;;;;;;4.00;3.63;;;;;;;;;;5052198;28;20269;-88
2022/03/13 10:19:34;;;;;;;10.37;6.87;;;;;;;;;;5052222;28;20206;-88
2022/03/13 10:22:07;;;;;;;11.90;10.63;;;;;;;;;;5052270;28;20201;-88
2022/03/13 10:24:43;;;;;;;11.53;10.43;;;;;;;;;;5052549;28;20195;-89
2022/03/13 10:27:12;;;;;;;9.90;8.90;;;;;;;;;;5051954;28;20201;-89
2022/03/13 10:29:40;;;;;;;9.60;8.70;;;;;;;;;;5052334;28;20202;-89
2022/03/13 10:32:08;;;;;;;5.37;4.53;;;;;;;;;;5051849;28;20221;-88
2022/03/13 10:34:35;;;;;;;5.47;4.40;;;;;;;;;;5051750;28;20678;-88
2022/03/13 10:37:04;;;;;;;4.47;4.07;;;;;;;;;;5051784;28;20197;-88
2022/03/13 10:39:34;;;;;;;4.07;3.53;;;;;;;;;;5051468;28;20212;-88
2022/03/13 10:42:03;;;;;;;5.80;3.57;;;;;;;;;;5051886;28;20270;-88
2022/03/13 10:44:34;;;;;;;3.87;3.47;;;;;;;;;;5051480;28;20198;-88
2022/03/13 10:47:05;;;;;;;3.80;3.43;;;;;;;;;;5051837;28;20182;-88
2022/03/13 10:49:36;;;;;;;3.07;2.60;;;;;;;;;;5051921;28;20190;-88
2022/03/13 10:52:22;;;;;;;3.40;3.10;;;;;;;;;;5050861;28;20262;-88
2022/03/13 10:54:51;;;;;;;5.07;3.93;;;;;;;;;;5051941;28;20190;-88
2022/03/13 10:57:19;;;;;;;12.03;5.03;;;;;;;;;;5051952;28;20198;-88
2022/03/13 10:59:47;;;;;;;16.27;14.57;;;;;;;;;;5051695;28;20575;-88
2022/03/13 11:02:15;;;;;;;5.50;5.00;;;;;;;;;;5051334;28;20194;-88
2022/03/13 11:04:55;;;;;;;7.23;5.50;;;;;;;;;;5050975;28;20198;-88
2022/03/13 11:07:22;;;;;;;6.03;4.53;;;;;;;;;;5051235;28;20242;-88
2022/03/13 11:09:51;;;;;;;4.13;3.77;;;;;;;;;;5051102;28;20198;-88
2022/03/13 11:12:20;;;;;;;4.53;4.07;;;;;;;;;;5051380;28;20221;-88
2022/03/13 11:14:49;;;;;;;4.97;3.87;;;;;;;;;;5051113;28;20202;-87
2022/03/13 11:17:17;;;;;;;5.50;4.90;;;;;;;;;;5051256;28;20240;-88
2022/03/13 11:19:46;;;;;;;4.67;3.93;;;;;;;;;;5051016;28;20202;-88
2022/03/13 11:22:16;;;;;;;5.93;4.53;;;;;;;;;;5051100;28;20198;-89
2022/03/13 11:24:43;;;;;;;4.47;4.00;;;;;;;;;;5051446;28;20202;-89
2022/03/13 11:27:13;;;;;;;5.67;5.00;;;;;;;;;;5050844;28;20650;-88
2022/03/13 11:29:44;;;;;;;6.13;5.53;;;;;;;;;;5051290;28;20201;-88
2022/03/13 11:32:31;;;;;;;5.13;4.67;;;;;;;;;;5050628;28;20226;-88
2022/03/13 11:35:25;;;;;;;6.40;5.07;;;;;;;;;;5050928;28;20205;-86
2022/03/13 11:37:54;;;;;;;38.57;24.70;;;;;;;;;;5050473;28;20202;-88
2022/03/13 11:40:30;;;;;;;15.33;10.00;;;;;;;;;;5051066;28;20609;-88
2022/03/13 11:43:08;;;;;;;6.63;4.53;;;;;;;;;;5051009;28;20190;-88
2022/03/13 11:45:38;;;;;;;4.90;3.73;;;;;;;;;;5050879;28;20182;-88
2022/03/13 11:48:42;;;;;;;5.13;3.97;;;;;;;;;;5050812;28;20198;-87
2022/03/13 11:51:11;;;;;;;9.27;7.07;;;;;;;;;;5050511;28;20190;-87
2022/03/13 11:53:49;;;;;;;7.77;5.30;;;;;;;;;;5050403;28;20218;-87
2022/03/13 11:56:28;;;;;;;5.23;4.23;;;;;;;;;;5050294;28;20243;-87
2022/03/13 11:58:58;;;;;;;5.40;4.83;;;;;;;;;;5050287;28;20284;-88
2022/03/13 12:01:34;;;;;;;5.00;4.50;;;;;;;;;;5050309;28;20669;-88
2022/03/13 12:04:26;;;;;;;10.07;5.00;;;;;;;;;;5049311;28;20198;-87
2022/03/13 12:07:06;;;;;;;15.73;8.70;;;;;;;;;;5050266;28;20223;-87
2022/03/13 12:09:44;;;;;;;5.47;4.70;;;;;;;;;;5050701;28;20704;-87
2022/03/13 12:12:14;;;;;;;7.57;5.07;;;;;;;;;;5050467;28;20197;-88
2022/03/13 12:14:54;;;;;;;4.83;4.13;;;;;;;;;;5050198;28;20281;-88
2022/03/13 12:17:23;;;;;;;4.90;4.23;;;;;;;;;;5049999;28;20280;-88
2022/03/13 12:19:51;;;;;;;5.00;4.50;;;;;;;;;;5050303;28;20194;-88
2022/03/13 12:22:23;;;;;;;4.37;3.87;;;;;;;;;;5050507;28;20202;-88
2022/03/13 12:24:51;;;;;;;10.90;7.50;;;;;;;;;;5049961;28;20256;-87
2022/03/13 12:27:18;;;;;;;10.03;7.07;;;;;;;;;;5049816;28;20198;-88
2022/03/13 12:29:55;;;;;;;9.03;7.17;;;;;;;;;;5049988;28;20605;-88
2022/03/13 12:32:23;;;;;;;4.87;4.07;;;;;;;;;;5050052;28;20565;-87
2022/03/13 12:34:50;;;;;;;4.80;4.30;;;;;;;;;;5049761;28;20194;-87
2022/03/13 12:37:17;;;;;;;3.90;3.50;;;;;;;;;;5049977;28;20202;-88
2022/03/13 12:39:51;;;;;;;5.63;4.93;;;;;;;;;;5049149;28;20198;-89
2022/03/13 12:42:24;;;;;;;6.03;4.53;;;;;;;;;;5039370;28;20198;-87
2022/03/13 12:45:09;;;;;;;7.33;6.23;;;;;;;;;;5029776;28;20191;-88
2022/03/13 12:47:40;;;;;;;5.23;4.40;;;;;;;;;;5029879;28;20223;-87
2022/03/13 12:50:12;;;;;;;7.80;5.40;;;;;;;;;;5029518;28;20274;-88
2022/03/13 12:52:40;;;;;;;6.87;5.70;;;;;;;;;;5029791;28;20218;-88
2022/03/13 12:55:09;;;;;;;6.00;4.50;;;;;;;;;;5029343;28;20683;-88
2022/03/13 12:57:37;;;;;;;6.67;3.90;;;;;;;;;;5029730;28;20277;-87
2022/03/13 13:00:08;;;;;;;5.90;4.30;;;;;;;;;;5029722;28;20207;-88
2022/03/13 13:02:36;;;;;;;11.33;7.00;;;;;;;;;;5029639;28;20210;-88
2022/03/13 13:05:06;;;;;;;4.90;3.43;;;;;;;;;;5029449;28;20199;-87
2022/03/13 13:07:35;;;;;;;3.60;3.30;;;;;;;;;;5029512;28;20198;-87
2022/03/13 13:10:09;;;;;;;5.17;3.53;;;;;;;;;;5029289;28;20721;-88
2022/03/13 13:12:37;;;;;;;7.40;6.20;;;;;;;;;;5029566;28;20203;-88
2022/03/13 13:15:08;;;;;;;4.83;4.43;;;;;;;;;;5034276;28;20575;-87
2022/03/13 13:17:35;;;;;;;4.20;3.80;;;;;;;;;;5035908;28;20656;-87
2022/03/13 13:20:05;;;;;;;5.03;4.27;;;;;;;;;;5035702;28;20205;-88
2022/03/13 13:22:35;;;;;;;8.10;5.97;;;;;;;;;;5035655;28;20252;-87
2022/03/13 13:25:11;;;;;;;6.37;5.53;;;;;;;;;;5036250;28;20627;-88
2022/03/13 13:27:39;;;;;;;9.43;5.40;;;;;;;;;;5035993;28;20231;-88
2022/03/13 13:30:28;;;;;;;5.57;4.27;;;;;;;;;;5036007;28;20599;-87
2022/03/13 13:32:59;;;;;;;5.23;4.20;;;;;;;;;;5035657;28;20206;-88
2022/03/13 13:35:31;;;;;;;3.67;3.07;;;;;;;;;;5035731;28;20179;-87
2022/03/13 13:38:05;;;;;;;4.03;3.30;;;;;;;;;;5035906;28;20186;-87
2022/03/13 13:40:34;;;;;;;4.93;3.67;;;;;;;;;;5035973;28;20193;-88
2022/03/13 13:43:06;;;;;;;3.93;3.43;;;;;;;;;;5035460;28;20199;-87
2022/03/13 13:45:39;;;;;;;4.70;3.33;;;;;;;;;;5035533;28;20198;-88
2022/03/13 13:48:34;;;;;;;3.73;3.30;;;;;;;;;;5035942;28;20186;-88
2022/03/13 13:51:19;;;;;;;4.97;3.77;;;;;;;;;;5035667;28;20215;-87
2022/03/13 13:54:02;;;;;;;8.03;6.73;;;;;;;;;;5035576;28;20210;-87
2022/03/13 13:56:32;;;;;;;8.60;5.83;;;;;;;;;;5035389;28;20179;-87
2022/03/13 13:59:14;;;;;;;6.40;4.70;;;;;;;;;;5035397;28;20277;-88
2022/03/13 14:01:44;;;;;;;24.40;14.97;;;;;;;;;;5035477;28;20198;-87
2022/03/13 14:04:12;;;;;;;20.43;13.93;;;;;;;;;;5035423;28;20199;-87
2022/03/13 14:06:39;;;;;;;7.53;6.80;;;;;;;;;;5035707;28;20549;-88
2022/03/13 14:09:07;;;;;;;7.30;6.30;;;;;;;;;;5035210;28;20195;-87
2022/03/13 14:11:35;;;;;;;5.57;4.70;;;;;;;;;;5035121;28;20244;-87
2022/03/13 14:14:03;;;;;;;12.93;10.47;;;;;;;;;;5035400;28;20309;-87
2022/03/13 14:16:32;;;;;;;5.90;5.30;;;;;;;;;;5035188;28;20253;-88
2022/03/13 14:19:01;;;;;;;19.60;13.27;;;;;;;;;;5035169;28;20191;-88
2022/03/13 14:21:28;;;;;;;6.97;5.40;;;;;;;;;;5034834;28;20209;-87
2022/03/13 14:23:55;;;;;;;7.50;5.37;;;;;;;;;;5035461;28;20277;-88
2022/03/13 14:26:22;;;;;;;7.90;4.97;;;;;;;;;;5032614;28;20206;-87
2022/03/13 14:28:49;;;;;;;12.77;8.13;;;;;;;;;;5031956;28;20205;-86
2022/03/13 14:31:17;;;;;;;13.77;8.97;;;;;;;;;;5031909;28;20201;-87
2022/03/13 14:33:44;;;;;;;13.60;7.67;;;;;;;;;;5031588;28;20219;-87
2022/03/13 14:36:13;;;;;;;8.63;6.47;;;;;;;;;;5032007;28;20246;-88
2022/03/13 14:38:44;;;;;;;6.23;5.40;;;;;;;;;;5032032;28;20251;-87
2022/03/13 14:41:12;;;;;;;9.07;6.23;;;;;;;;;;5031660;28;20207;-87
2022/03/13 14:43:40;;;;;;;13.17;10.17;;;;;;;;;;5031633;28;20628;-88
2022/03/13 14:46:09;;;;;;;20.93;18.10;;;;;;;;;;5031486;28;20209;-87
2022/03/13 14:48:37;;;;;;;24.00;20.97;;;;;;;;;;5031231;28;20291;-87
2022/03/13 14:51:05;;;;;;;8.70;7.77;;;;;;;;;;5031219;28;20212;-87
2022/03/13 14:53:34;;;;;;;12.43;7.20;;;;;;;;;;5031588;28;20603;-87